Data for 10/23/2007

Time Sea-Level Adjusted Pressure Absolute Pressure Temperature Relative Humidity Dew Point   
(mb) (inHg) (mb) (inHg) (C) (F) (%) (C) (F)
00:05 1030 30.42 859 25.37 9.8 49.6 59 2.3 36.1
00:10 1030 30.42 859 25.37 9.9 49.9 59 2.4 36.3
00:15 1030 30.42 859 25.37 10.1 50.1 59 2.4 36.4
00:20 1030 30.42 859 25.37 10.1 50.3 59 2.4 36.4
00:25 1030 30.42 859 25.37 10.3 50.5 57 2.3 36.1
00:30 1030 30.42 859 25.37 10.6 51 56 2.3 36.2
00:35 1030 30.42 859 25.37 10.7 51.2 57 2.5 36.5
00:40 1030 30.42 859 25.37 10.6 51 57 2.4 36.3
00:45 1030 30.42 859 25.37 10.5 50.8 58 2.5 36.5
00:50 1030 30.42 859 25.37 10.2 50.4 58 2.4 36.3
00:55 1030 30.42 859 25.37 10.2 50.3 58 2.3 36.2
01:00 1030 30.42 859 25.37 10.1 50.2 58 2.4 36.3
01:05 1030 30.42 859 25.37 10 50.1 59 2.4 36.4
01:10 1030 30.42 859 25.37 9.8 49.7 60 2.6 36.6
01:15 1030 30.42 859 25.37 9.7 49.4 60 2.3 36.1
01:20 1030 30.42 859 25.37 9.8 49.6 59 2.2 36
01:25 1030 30.42 859 25.37 10.1 50.3 57 2.1 35.8
01:30 1030 30.42 859 25.37 10.4 50.7 58 2.5 36.4
01:35 1030 30.42 860 25.4 10.3 50.6 57 2.1 35.9
01:40 1030 30.42 860 25.4 10.4 50.7 57 2.3 36.2
01:45 1030 30.42 860 25.4 10.2 50.3 58 2.3 36.1
01:50 1031 30.45 860 25.4 10.2 50.3 58 2.2 35.9
01:55 1031 30.45 860 25.4 10.1 50.1 59 2.4 36.3
02:00 1031 30.45 860 25.4 9.9 49.8 59 2.3 36.1
02:05 1031 30.45 860 25.4 9.8 49.7 59 2.2 36
02:10 1031 30.45 860 25.4 9.8 49.7 59 2.3 36.2
02:15 1031 30.45 860 25.4 9.6 49.2 61 2.3 36.2
02:20 1031 30.45 860 25.4 9.3 48.7 61 2.3 36.1
02:25 1031 30.45 860 25.4 9.1 48.3 62 2.3 36.1
02:30 1031 30.45 860 25.4 9.2 48.6 60 1.9 35.4
02:35 1031 30.45 860 25.4 9.9 49.7 58 2.1 35.8
02:40 1031 30.45 860 25.4 10 49.9 58 2.2 36
02:45 1031 30.45 860 25.4 9.9 49.8 58 2.2 35.9
02:50 1031 30.45 860 25.4 9.8 49.7 59 2.2 35.9
02:55 1031 30.45 860 25.4 9.6 49.3 59 2.1 35.8
03:00 1031 30.45 860 25.4 9.4 48.9 60 2.1 35.8
03:05 1031 30.45 860 25.4 9.3 48.8 60 1.9 35.4
03:10 1031 30.45 860 25.4 9.4 48.9 59 1.8 35.3
03:15 1031 30.45 860 25.4 9.3 48.8 60 1.9 35.5
03:20 1031 30.45 860 25.4 9.3 48.7 60 1.9 35.4
03:25 1031 30.45 860 25.4 9.1 48.4 61 2 35.7
03:30 1031 30.45 860 25.4 9 48.3 61 2 35.5
03:35 1031 30.45 860 25.4 8.8 47.8 63 2.2 36
03:40 1031 30.45 860 25.4 8.7 47.7 63 2.1 35.7
03:45 1031 30.45 860 25.4 8.8 47.8 62 1.9 35.4
03:50 1031 30.45 860 25.4 9 48.1 61 1.8 35.2
03:55 1031 30.45 860 25.4 9.1 48.3 61 1.9 35.4
04:00 1031 30.45 860 25.4 9 48.2 61 1.9 35.4
04:05 1031 30.45 860 25.4 9.1 48.4 61 2.1 35.9
04:10 1031 30.45 860 25.4 8.8 47.8 64 2.4 36.3
04:15 1031 30.45 860 25.4 8.4 47.1 66 2.5 36.6
04:20 1031 30.45 860 25.4 8.2 46.7 66 2.2 36
04:25 1031 30.45 860 25.4 8.3 46.9 66 2.3 36.2
04:30 1031 30.45 860 25.4 8.6 47.6 63 2.1 35.8
04:35 1031 30.45 860 25.4 8.8 47.8 60 1.5 34.7
04:40 1031 30.45 860 25.4 9.7 49.4 56 1.4 34.5
04:45 1031 30.45 860 25.4 9.9 49.8 61 2.7 36.9
04:50 1031 30.45 860 25.4 9.5 49.1 59 1.9 35.4
04:55 1031 30.45 860 25.4 9.1 48.4 63 2.4 36.3
05:00 1031 30.45 860 25.4 8.9 48 63 2.2 35.9
05:05 1031 30.45 860 25.4 8.5 47.3 64 2.1 35.8
05:10 1031 30.45 860 25.4 8.4 47.2 64 2 35.6
05:15 1031 30.45 860 25.4 8.7 47.7 62 1.9 35.5
05:20 1031 30.45 860 25.4 9.5 49.1 58 1.6 34.9
05:25 1031 30.45 860 25.4 9.7 49.5 58 2 35.5
05:30 1031 30.45 860 25.4 9.6 49.3 59 2 35.6
05:35 1031 30.45 860 25.4 9.8 49.7 56 1.6 34.8
05:40 1031 30.45 860 25.4 10.1 50.1 57 1.9 35.4
05:45 1031 30.45 860 25.4 10 50 57 1.9 35.4
05:50 1031 30.45 860 25.4 9.8 49.6 58 2 35.6
05:55 1031 30.45 860 25.4 9.4 49 59 2 35.5
06:00 1031 30.45 860 25.4 9.7 49.5 55 1.1 34
06:05 1031 30.45 860 25.4 10.4 50.6 58 2.5 36.5
06:10 1031 30.45 860 25.4 8.9 48 61 1.9 35.4
06:15 1031 30.45 860 25.4 8.8 47.8 60 1.6 34.9
06:20 1031 30.45 860 25.4 8.6 47.4 62 1.8 35.3
06:25 1031 30.45 860 25.4 8.4 47.1 63 1.8 35.2
06:30 1031 30.45 861 25.43 7.9 46.2 67 2.2 35.9
06:35 1031 30.45 861 25.43 7.4 45.3 67 1.7 35.1
06:40 1031 30.45 861 25.43 7.6 45.6 68 2 35.5
06:45 1031 30.45 861 25.43 6.8 44.2 69 1.5 34.7
06:50 1031 30.45 861 25.43 7.1 44.9 67 1.3 34.4
06:55 1031 30.45 861 25.43 7.4 45.4 64 1.1 34
07:00 1031 30.45 861 25.43 7.7 45.8 65 1.5 34.6
07:05 1031 30.45 861 25.43 7.3 45.2 68 1.8 35.2
07:10 1032 30.47 861 25.43 6.6 44 68 1.2 34.2
07:15 1031 30.45 861 25.43 6.6 43.8 72 1.8 35.3
07:20 1031 30.45 861 25.43 6.3 43.4 69 1.1 34
07:25 1031 30.45 861 25.43 6.7 44 69 1.4 34.5
07:30 1032 30.47 861 25.43 6.6 43.9 70 1.5 34.6
07:35 1032 30.47 861 25.43 6.6 43.8 71 1.6 35
07:40 1032 30.47 861 25.43 6 42.8 73 1.5 34.6
07:45 1031 30.45 861 25.43 6.3 43.3 69 1.1 34
07:50 1031 30.45 861 25.43 7 44.6 66 1 33.8
07:55 1032 30.47 861 25.43 7.1 44.9 68 1.7 35
08:00 1032 30.47 861 25.43 6.6 43.9 68 1.2 34.2
08:05 1032 30.47 861 25.43 6.9 44.5 64 0.6 33.1
08:10 1032 30.47 861 25.43 7.2 45 66 1.4 34.5
08:15 1032 30.47 861 25.43 7 44.6 66 1.1 34
08:20 1032 30.47 861 25.43 7 44.6 66 1.2 34.1
08:25 1032 30.47 861 25.43 7 44.6 66 1.1 33.9
08:30 1032 30.47 861 25.43 7 44.6 67 1.4 34.5
08:35 1032 30.47 861 25.43 6.8 44.3 68 1.4 34.5
08:40 1032 30.47 861 25.43 6.6 43.8 70 1.6 34.8
08:45 1032 30.47 861 25.43 6.7 44 69 1.4 34.6
08:50 1032 30.47 861 25.43 6.9 44.4 69 1.6 34.8
08:55 1032 30.47 861 25.43 7.3 45.1 68 1.7 35.1
09:00 1032 30.47 861 25.43 7.7 45.8 67 2 35.6
09:05 1032 30.47 861 25.43 8 46.5 65 1.8 35.3
09:10 1032 30.47 861 25.43 8.8 47.8 63 2.1 35.8
09:15 1032 30.47 861 25.43 9.3 48.8 61 2.2 36
09:20 1032 30.47 862 25.45 9.9 49.9 59 2.3 36.2
09:25 1032 30.47 862 25.45 10.7 51.2 58 2.8 37.1
09:30 1033 30.5 862 25.45 11.2 52.1 56 2.7 36.9
09:35 1033 30.5 862 25.45 11.2 52.1 58 3.2 37.8
09:40 1033 30.5 862 25.45 10.3 50.5 59 2.7 36.8
09:45 1033 30.5 862 25.45 10.4 50.8 59 2.9 37.2
09:50 1033 30.5 862 25.45 10.3 50.6 60 3 37.4
09:55 1033 30.5 862 25.45 10.3 50.5 60 2.8 37.1
10:00 1033 30.5 862 25.45 10.6 51.1 59 3 37.4
10:05 1033 30.5 862 25.45 10.4 50.7 61 3.2 37.7
10:10 1033 30.5 862 25.45 9.9 49.9 62 2.9 37.3
10:15 1033 30.5 862 25.45 9.9 49.8 62 2.9 37.2
10:20 1033 30.5 862 25.45 10.3 50.5 59 2.6 36.8
10:25 1033 30.5 862 25.45 11.2 52.1 55 2.6 36.7
10:30 1033 30.5 862 25.45 11.9 53.5 50 1.8 35.2
10:35 1033 30.5 862 25.45 12.5 54.5 47 1.6 34.9
10:40 1033 30.5 862 25.45 13.1 55.5 45 1.5 34.7
10:45 1033 30.5 862 25.45 13.3 55.9 46 1.9 35.4
10:50 1033 30.5 862 25.45 13.3 55.9 45 1.6 34.9
10:55 1033 30.5 862 25.45 13.8 56.8 44 1.7 35.1
11:00 1033 30.5 862 25.45 13.9 57 44 1.9 35.4
11:05 1033 30.5 862 25.45 14.1 57.4 43 1.9 35.4
11:10 1033 30.5 862 25.45 14.8 58.7 42 2 35.6
11:15 1033 30.5 862 25.45 15.2 59.3 40 1.9 35.4
11:20 1033 30.5 862 25.45 15.6 60.1 39 1.7 35.1
11:25 1033 30.5 862 25.45 15.9 60.6 37 1.3 34.4
11:30 1033 30.5 862 25.45 15.9 60.6 36 0.8 33.5
11:35 1033 30.5 862 25.45 16.6 61.8 34 0.9 33.6
11:40 1033 30.5 862 25.45 17 62.6 34 1.3 34.3
11:45 1033 30.5 862 25.45 17.3 63.2 34 1.6 34.9
11:50 1033 30.5 862 25.45 17.2 63 35 1.8 35.3
11:55 1033 30.5 862 25.45 17.5 63.5 33 1.1 33.9
12:00 1033 30.5 862 25.45 18 64.3 32 1 33.9
12:05 1033 30.5 862 25.45 18 64.5 31 0.7 33.2
12:10 1033 30.5 862 25.45 18.1 64.6 30 0.2 32.4
12:15 1033 30.5 862 25.45 18.2 64.7 33 1.7 35.1
12:20 1033 30.5 862 25.45 17.6 63.7 30 0.2 32.3
12:25 1033 30.5 862 25.45 18.6 65.6 26 -1 30.2
12:30 1033 30.5 862 25.45 19.2 66.6 26 -0.4 31.3
12:35 1033 30.5 862 25.45 19.1 66.4 27 -0 31.9
12:40 1033 30.5 862 25.45 19.7 67.4 26 -0.3 31.5
12:45 1033 30.5 862 25.45 20.1 68.2 25 -0.4 31.3
12:50 1033 30.5 862 25.45 20.1 68.2 25 -0.6 30.9
12:55 1033 30.5 862 25.45 20.1 68.1 24 -0.9 30.3
13:00 1032 30.47 862 25.45 20.1 68.3 24 -0.9 30.4
13:05 1032 30.47 862 25.45 20.2 68.4 25 -0.5 31.2
13:10 1032 30.47 862 25.45 20.6 69 24 -0.8 30.6
13:15 1032 30.47 862 25.45 20.3 68.6 24 -0.7 30.7
13:20 1032 30.47 861 25.43 20.3 68.6 25 0 32.1
13:25 1032 30.47 861 25.43 20.6 69 25 -0.2 31.7
13:30 1032 30.47 861 25.43 19.8 67.7 26 -0.1 31.7
13:35 1032 30.47 861 25.43 19.7 67.4 28 0.7 33.2
13:40 1032 30.47 861 25.43 20 67.9 27 0.4 32.7
13:45 1032 30.47 861 25.43 20.6 69 26 0.5 33
13:50 1032 30.47 861 25.43 20.7 69.3 25 0.2 32.3
13:55 1032 30.47 861 25.43 20.6 69.1 27 1.1 33.9
14:00 1032 30.47 861 25.43 20.3 68.6 27 0.8 33.5
14:05 1032 30.47 861 25.43 20.1 68.1 27 0.7 33.2
14:10 1032 30.47 861 25.43 19.4 67 29 1 33.7
14:15 1032 30.47 861 25.43 19.4 66.9 26 -0.4 31.3
14:20 1032 30.47 861 25.43 20.4 68.7 24 -0.6 30.8
14:25 1032 30.47 861 25.43 20.9 69.7 23 -0.5 31
14:30 1032 30.47 861 25.43 21.3 70.4 22 -0.8 30.5
14:35 1032 30.47 861 25.43 21.7 71.1 23 -0.3 31.4
14:40 1032 30.47 861 25.43 21.6 70.8 24 0.5 32.9
14:45 1032 30.47 861 25.43 20.9 69.6 25 0.4 32.7
14:50 1031 30.45 861 25.43 20.8 69.4 25 0.2 32.4
14:55 1031 30.45 861 25.43 20.6 69 24 -0.8 30.5
15:00 1031 30.45 861 25.43 20.8 69.4 24 -0.4 31.2
15:05 1031 30.45 861 25.43 20.6 69.1 22 -1.4 29.5
15:10 1031 30.45 861 25.43 20.9 69.5 22 -1.7 29
15:15 1031 30.45 861 25.43 21.2 70.2 21 -1.9 28.6
15:20 1031 30.45 861 25.43 21.3 70.4 20 -2.1 28.2
15:25 1031 30.45 860 25.4 21.8 71.2 20 -1.8 28.7
15:30 1031 30.45 860 25.4 21.4 70.6 21 -1.5 29.3
15:35 1031 30.45 860 25.4 21.3 70.4 21 -1.7 28.9
15:40 1031 30.45 861 25.43 21.1 70.1 21 -2.1 28.3
15:45 1031 30.45 860 25.4 21.5 70.7 20 -2 28.4
15:50 1031 30.45 860 25.4 21.9 71.3 19 -2.3 27.9
15:55 1031 30.45 860 25.4 22.5 72.4 19 -2.3 27.9
16:00 1031 30.45 860 25.4 22.7 72.8 19 -1.9 28.6
16:05 1031 30.45 860 25.4 22.2 71.9 20 -1.9 28.6
16:10 1031 30.45 860 25.4 22.3 72.1 19 -1.9 28.6
16:15 1031 30.45 860 25.4 22.3 72.2 20 -1.4 29.5
16:20 1031 30.45 860 25.4 21.5 70.6 21 -1.9 28.6
16:25 1031 30.45 860 25.4 21.7 71 21 -1.4 29.4
16:30 1031 30.45 860 25.4 21.9 71.4 21 -1.1 30
16:35 1031 30.45 860 25.4 20.9 69.6 22 -1.2 29.9
16:40 1031 30.45 860 25.4 21.3 70.3 21 -1.5 29.3
16:45 1031 30.45 860 25.4 21.7 71.1 21 -1.3 29.6
16:50 1031 30.45 860 25.4 21.6 70.9 21 -1.5 29.3
16:55 1031 30.45 860 25.4 21.7 71.1 21 -1.1 30
17:00 1031 30.45 860 25.4 21.5 70.8 22 -0.8 30.6
17:05 1031 30.45 860 25.4 20.7 69.2 23 -0.9 30.3
17:10 1031 30.45 860 25.4 20.4 68.7 23 -1.1 30
17:15 1031 30.45 860 25.4 20.6 69.1 22 -1.5 29.2
17:20 1031 30.45 860 25.4 20.9 69.6 22 -1.2 29.9
17:25 1031 30.45 860 25.4 20.8 69.4 24 -0.6 31
17:30 1031 30.45 860 25.4 19.5 67 25 -0.7 30.8
17:35 1030 30.42 860 25.4 19 66.3 26 -0.9 30.4
17:40 1030 30.42 860 25.4 18.9 65.9 26 -1 30.2
17:45 1030 30.42 860 25.4 18.8 65.9 26 -1.1 30
17:50 1030 30.42 860 25.4 18.7 65.6 26 -1 30.2
17:55 1030 30.42 860 25.4 18.5 65.3 26 -1.1 29.9
18:00 1030 30.42 859 25.37 18.5 65.2 26 -1.1 30
18:05 1030 30.42 859 25.37 18.3 65 26 -1.3 29.7
18:10 1030 30.42 859 25.37 18.3 64.9 27 -1.1 30
18:15 1030 30.42 859 25.37 18.3 64.9 32 1.4 34.4
18:20 1030 30.42 859 25.37 17 62.7 35 1.5 34.8
18:25 1030 30.42 859 25.37 15.7 60.3 44 3.6 38.4
18:30 1030 30.42 859 25.37 15 59.1 40 1.7 35.1
18:35 1030 30.42 859 25.37 14.3 57.7 40 0.9 33.6
18:40 1030 30.42 859 25.37 13.9 57 43 1.6 34.9
18:45 1030 30.42 859 25.37 13.7 56.7 41 0.7 33.3
18:50 1030 30.42 859 25.37 13.4 56.1 42 0.9 33.6
18:55 1030 30.42 859 25.37 12.9 55.3 43 0.9 33.6
19:00 1030 30.42 859 25.37 12.5 54.6 44 0.7 33.3
19:05 1030 30.42 859 25.37 12.3 54.1 46 1.2 34.1
19:10 1030 30.42 859 25.37 11.9 53.4 50 1.9 35.3
19:15 1030 30.42 859 25.37 11.4 52.5 48 0.8 33.4
19:20 1030 30.42 859 25.37 11.7 53 48 1 33.8
19:25 1030 30.42 859 25.37 11.7 53 47 0.7 33.2
19:30 1030 30.42 859 25.37 11.7 53.1 46 0.7 33.2
19:35 1030 30.42 859 25.37 11.7 53 46 0.5 33
19:40 1030 30.42 859 25.37 11.7 53.1 47 0.7 33.3
19:45 1030 30.42 859 25.37 11.4 52.5 48 0.9 33.6
19:50 1030 30.42 859 25.37 11.1 51.9 49 0.8 33.4
19:55 1030 30.42 859 25.37 10.9 51.7 50 0.8 33.5
20:00 1030 30.42 859 25.37 10.9 51.7 49 0.6 33
20:05 1030 30.42 859 25.37 11.3 52.3 48 0.7 33.3
20:10 1030 30.42 859 25.37 11.2 52.1 50 1.2 34.2
20:15 1030 30.42 859 25.37 10.6 51.1 51 0.8 33.5
20:20 1030 30.42 859 25.37 10.9 51.6 49 0.8 33.4
20:25 1030 30.42 859 25.37 10.9 51.7 49 0.7 33.2
20:30 1030 30.42 859 25.37 10.9 51.6 49 0.7 33.3
20:35 1030 30.42 859 25.37 10.8 51.4 48 0.2 32.4
20:40 1030 30.42 859 25.37 11.1 52 47 0.2 32.4
20:45 1030 30.42 859 25.37 11.3 52.4 47 0.5 32.9
20:50 1030 30.42 859 25.37 11.1 52 48 0.6 33
20:55 1030 30.42 859 25.37 11 51.7 48 0.4 32.8
21:00 1030 30.42 859 25.37 10.9 51.5 49 0.6 33
21:05 1030 30.42 859 25.37 10.7 51.2 49 0.3 32.6
21:10 1030 30.42 859 25.37 10.9 51.5 48 0.3 32.6
21:15 1030 30.42 859 25.37 10.7 51.3 50 0.6 33.1
21:20 1029 30.39 859 25.37 10.6 51 49 0.4 32.7
21:25 1029 30.39 859 25.37 10.5 50.9 50 0.5 32.9
21:30 1029 30.39 859 25.37 10.1 50.1 52 0.6 33.2
21:35 1029 30.39 859 25.37 9.7 49.4 52 0.3 32.5
21:40 1029 30.39 859 25.37 9.9 49.8 50 -0.1 31.9
21:45 1029 30.39 859 25.37 10 49.9 51 0.3 32.5
21:50 1029 30.39 859 25.37 9.7 49.4 51 0.2 32.3
21:55 1029 30.39 859 25.37 9.5 49.2 51 -0.1 31.8
22:00 1029 30.39 859 25.37 9.6 49.3 51 -0.1 31.9
22:05 1029 30.39 859 25.37 9.5 49.1 52 0.1 32.2
22:10 1029 30.39 859 25.37 9.2 48.6 52 -0.1 31.8
22:15 1029 30.39 859 25.37 9.4 48.9 51 -0.3 31.5
22:20 1029 30.39 859 25.37 9.4 49 51 -0.2 31.6
22:25 1029 30.39 859 25.37 9.5 49.1 51 -0.1 31.9
22:30 1029 30.39 859 25.37 9.3 48.7 52 -0.1 31.9
22:35 1029 30.39 859 25.37 9.1 48.4 52 -0.3 31.5
22:40 1029 30.39 859 25.37 9.3 48.7 52 -0.1 31.8
22:45 1029 30.39 859 25.37 9.1 48.5 52 -0.1 31.8
22:50 1029 30.39 858 25.34 9.2 48.6 52 -0.1 31.7
22:55 1029 30.39 858 25.34 9.4 49 51 -0.2 31.7
23:00 1029 30.39 858 25.34 9.6 49.2 51 -0.1 31.8
23:05 1029 30.39 858 25.34 9.5 49.2 51 0.1 32.1
23:10 1029 30.39 858 25.34 9.3 48.7 52 -0.1 31.8
23:15 1029 30.39 858 25.34 8.8 47.9 53 -0.1 31.8
23:20 1029 30.39 858 25.34 8.4 47 53 -0.7 30.7
23:25 1029 30.39 858 25.34 8.4 47.1 52 -0.8 30.6
23:30 1029 30.39 858 25.34 8.7 47.6 49 -1.3 29.7
23:35 1029 30.39 858 25.34 9.2 48.6 47 -1.6 29.2
23:40 1029 30.39 858 25.34 9.3 48.8 47 -1.4 29.4
23:45 1029 30.39 858 25.34 9.4 48.9 49 -0.8 30.5
23:50 1029 30.39 858 25.34 9.2 48.5 50 -0.8 30.6
23:55 1029 30.39 858 25.34 9.2 48.5 50 -0.7 30.7
24:00 1029 30.39 858 25.34 9.3 48.7 50 -0.7 30.7